createdAt,value
2019-06-08T00:02:46.504Z,0.60
2019-06-08T00:07:50.022Z,0.30
2019-06-08T00:12:53.359Z,0.37
2019-06-08T00:17:59.340Z,0.57
2019-06-08T00:23:02.070Z,0.47
2019-06-08T00:28:05.496Z,0.70
2019-06-08T00:33:08.791Z,0.40
2019-06-08T00:38:12.218Z,0.30
2019-06-08T00:43:15.651Z,0.30
2019-06-08T00:48:19.547Z,0.40
2019-06-08T00:53:25.262Z,0.53
2019-06-08T00:58:28.798Z,0.30
2019-06-08T01:03:32.258Z,0.60
2019-06-08T01:08:35.671Z,0.50
2019-06-08T01:13:39.026Z,0.33
2019-06-08T01:18:42.388Z,0.30
2019-06-08T01:23:45.872Z,0.43
2019-06-08T01:28:49.231Z,0.47
2019-06-08T01:33:52.588Z,0.40
2019-06-08T01:38:55.918Z,0.40
2019-06-08T01:43:59.253Z,0.40
2019-06-08T01:49:02.635Z,0.10
2019-06-08T01:54:06.005Z,0.20
2019-06-08T01:59:09.419Z,0.33
2019-06-08T02:04:12.742Z,0.50
2019-06-08T02:09:16.158Z,0.40
2019-06-08T02:14:19.520Z,0.30
2019-06-08T02:19:22.870Z,0.37
2019-06-08T02:24:27.209Z,0.40
2019-06-08T02:29:31.611Z,0.30
2019-06-08T02:34:37.530Z,0.20
2019-06-08T02:39:40.278Z,0.33
2019-06-08T02:44:43.653Z,0.40
2019-06-08T02:49:47.075Z,0.40
2019-06-08T02:54:50.691Z,0.47
2019-06-08T02:59:55.916Z,0.33
2019-06-08T03:05:01.622Z,0.40
2019-06-08T03:10:07.919Z,0.50
2019-06-08T03:15:13.318Z,0.40
2019-06-08T03:20:16.740Z,0.50
2019-06-08T03:25:20.138Z,0.30
2019-06-08T03:30:23.615Z,0.50
2019-06-08T03:35:27.144Z,0.30
2019-06-08T03:40:30.610Z,0.20
2019-06-08T03:45:34.321Z,0.30
2019-06-08T03:50:39.564Z,0.40
2019-06-08T03:55:45.428Z,0.60
2019-06-08T04:00:49.195Z,0.40
2019-06-08T04:05:52.663Z,0.67
2019-06-08T04:10:56.027Z,0.60
2019-06-08T04:15:59.605Z,0.60
2019-06-08T04:21:02.996Z,0.50
2019-06-08T04:26:06.373Z,0.57
2019-06-08T04:31:09.829Z,0.53
2019-06-08T04:36:13.149Z,0.40
2019-06-08T04:41:16.518Z,0.50
2019-06-08T04:46:19.852Z,0.40
2019-06-08T04:51:23.277Z,0.30
2019-06-08T04:56:26.652Z,0.20
2019-06-08T05:01:30.006Z,0.47
2019-06-08T05:06:33.442Z,0.30
2019-06-08T05:11:36.818Z,0.30
2019-06-08T05:16:41.243Z,0.27
2019-06-08T05:21:45.488Z,0.57
2019-06-08T05:26:49.666Z,0.53
2019-06-08T05:31:53.111Z,0.50
2019-06-08T05:36:56.443Z,0.50
2019-06-08T05:41:59.787Z,0.70
2019-06-08T05:47:03.130Z,0.60
2019-06-08T05:52:06.818Z,0.50
2019-06-08T05:57:10.153Z,0.40
2019-06-08T06:02:13.548Z,0.50
2019-06-08T06:07:17.024Z,0.57
2019-06-08T06:12:20.395Z,0.37
2019-06-08T06:17:23.736Z,0.43
2019-06-08T06:22:27.071Z,0.50
2019-06-08T06:27:30.417Z,0.50
2019-06-08T06:32:33.830Z,0.43
2019-06-08T06:37:37.223Z,0.67
2019-06-08T06:42:41.996Z,0.60
2019-06-08T06:47:46.445Z,0.57
2019-06-08T06:52:50.785Z,0.60
2019-06-08T06:57:54.137Z,0.80
2019-06-08T07:02:58.292Z,0.47
2019-06-08T07:08:01.628Z,0.50
2019-06-08T07:13:05.147Z,0.50
2019-06-08T07:18:08.513Z,0.60
2019-06-08T07:23:11.972Z,0.67
2019-06-08T07:28:15.354Z,1.33
2019-06-08T07:33:18.879Z,0.70
2019-06-08T07:38:22.237Z,0.50
2019-06-08T07:43:25.825Z,0.87
2019-06-08T07:48:29.173Z,0.30
2019-06-08T07:53:32.643Z,0.50
2019-06-08T07:58:35.997Z,0.60
2019-06-08T08:03:39.388Z,0.40
2019-06-08T08:08:42.735Z,0.50
2019-06-08T08:13:46.117Z,0.40
2019-06-08T08:18:49.456Z,0.80
2019-06-08T08:23:53.269Z,0.50
2019-06-08T08:28:59.837Z,0.83
2019-06-08T08:34:05.714Z,0.47
2019-06-08T08:39:08.608Z,0.40
2019-06-08T08:44:11.993Z,0.30
2019-06-08T08:49:15.335Z,0.60
2019-06-08T08:54:18.707Z,0.40
2019-06-08T08:59:22.073Z,0.90
2019-06-08T09:04:27.643Z,0.50
2019-06-08T09:09:30.551Z,0.60
2019-06-08T09:14:34.050Z,0.53
2019-06-08T09:19:38.211Z,0.53
2019-06-08T09:24:41.935Z,0.57
2019-06-08T09:29:48.001Z,0.40
2019-06-08T09:34:50.435Z,0.40
2019-06-08T09:39:54.014Z,0.67
2019-06-08T09:45:00.413Z,0.60
2019-06-08T09:50:04.565Z,0.83
2019-06-08T09:55:09.203Z,0.40
2019-06-08T10:00:18.342Z,0.90
2019-06-08T10:05:18.680Z,0.40
2019-06-08T10:10:22.093Z,0.60
2019-06-08T10:15:27.730Z,0.47
2019-06-08T10:20:30.939Z,0.23
2019-06-08T10:25:34.335Z,0.60
2019-06-08T10:30:38.417Z,0.73
2019-06-08T10:35:41.862Z,0.17
2019-06-08T10:41:10.153Z,0.70
2019-06-08T10:46:16.102Z,0.60
2019-06-08T10:51:14.017Z,0.80
2019-06-08T10:56:18.899Z,0.20
2019-06-08T11:01:22.479Z,0.60
2019-06-08T11:06:25.875Z,0.83
2019-06-08T11:11:29.268Z,0.60
2019-06-08T11:16:32.777Z,0.90
2019-06-08T11:21:38.379Z,0.20
2019-06-08T11:26:41.254Z,0.50
2019-06-08T11:31:44.615Z,0.90
2019-06-08T11:36:48.402Z,0.60
2019-06-08T11:41:52.989Z,0.50
2019-06-08T11:46:57.510Z,0.80
2019-06-08T11:52:02.496Z,0.70
2019-06-08T11:57:08.463Z,0.57
2019-06-08T12:02:14.048Z,0.60
2019-06-08T12:07:16.171Z,0.93
2019-06-08T12:12:21.319Z,1.00
2019-06-08T12:17:24.647Z,0.80
2019-06-08T12:22:27.995Z,0.70
2019-06-08T12:27:36.227Z,0.83
2019-06-08T12:32:36.490Z,0.70
2019-06-08T12:37:39.845Z,0.43
2019-06-08T12:42:43.183Z,1.20
2019-06-08T12:47:47.938Z,0.70
2019-06-08T12:52:51.350Z,0.70
2019-06-08T12:57:54.904Z,0.80
2019-06-08T13:02:58.281Z,0.63
2019-06-08T13:08:01.637Z,1.03
2019-06-08T13:13:05.063Z,0.93
2019-06-08T13:18:10.007Z,0.90
2019-06-08T13:23:13.484Z,0.37
2019-06-08T13:28:22.784Z,1.57
2019-06-08T13:33:21.999Z,1.00
2019-06-08T13:38:27.646Z,1.10
2019-06-08T13:43:30.713Z,0.87
2019-06-08T13:48:34.429Z,0.90
2019-06-08T13:53:38.456Z,0.90
2019-06-08T13:58:41.933Z,0.53
2019-06-08T14:03:49.756Z,0.90
2019-06-08T14:08:50.591Z,0.90
2019-06-08T14:13:54.533Z,1.13
2019-06-08T14:18:58.158Z,0.80
2019-06-08T14:24:01.639Z,0.67
2019-06-08T14:29:05.386Z,0.63
2019-06-08T14:34:10.400Z,1.30
2019-06-08T14:39:13.279Z,0.80
2019-06-08T14:44:19.377Z,0.67
2019-06-08T14:49:25.082Z,1.00
2019-06-08T14:54:32.787Z,0.90
2019-06-08T14:59:32.188Z,1.03
2019-06-08T15:04:36.794Z,1.00
2019-06-08T15:09:41.130Z,1.00
2019-06-08T15:14:44.600Z,1.10
2019-06-08T15:19:47.985Z,0.70
2019-06-08T15:24:51.338Z,0.90
2019-06-08T15:29:54.671Z,0.60
2019-06-08T15:34:58.038Z,0.90
2019-06-08T15:40:01.427Z,0.90
2019-06-08T15:45:08.351Z,0.33
2019-06-08T15:50:11.343Z,0.80
2019-06-08T15:55:14.866Z,1.40
2019-06-08T16:00:18.650Z,0.60
2019-06-08T16:05:23.376Z,0.60
2019-06-08T16:10:28.045Z,0.90
2019-06-08T16:15:31.538Z,0.60
2019-06-08T16:20:35.761Z,1.00
2019-06-08T16:25:39.302Z,0.70
2019-06-08T16:30:42.708Z,0.60
2019-06-08T16:35:46.265Z,0.97
2019-06-08T16:40:49.621Z,0.50
2019-06-08T16:45:52.952Z,0.70
2019-06-08T16:50:56.315Z,1.07
2019-06-08T16:55:59.776Z,0.77
2019-06-08T17:01:03.355Z,0.83
2019-06-08T17:06:06.753Z,0.97
2019-06-08T17:11:10.124Z,0.80
2019-06-08T17:16:13.554Z,0.60
2019-06-08T17:21:16.983Z,0.73
2019-06-08T17:26:20.416Z,0.97
2019-06-08T17:31:24.014Z,0.50
2019-06-08T17:36:27.574Z,0.80
2019-06-08T17:41:31.909Z,0.60
2019-06-08T17:46:36.541Z,0.73
2019-06-08T17:51:41.832Z,0.63
2019-06-08T17:56:45.477Z,0.90
2019-06-08T18:01:49.346Z,0.73
2019-06-08T18:06:52.686Z,0.80
2019-06-08T18:11:56.018Z,0.80
2019-06-08T18:16:59.408Z,1.50
2019-06-08T18:22:05.828Z,0.90
2019-06-08T18:27:07.940Z,1.20
2019-06-08T18:32:11.294Z,1.00
2019-06-08T18:37:14.933Z,1.03
2019-06-08T18:42:18.782Z,0.80
2019-06-08T18:47:22.199Z,1.17
2019-06-08T18:52:25.546Z,3.00
2019-06-08T18:57:28.948Z,3.20
2019-06-08T19:02:32.284Z,1.83
2019-06-08T19:07:36.948Z,1.90
2019-06-08T19:12:41.842Z,1.17
2019-06-08T19:17:54.117Z,0.90
2019-06-08T19:22:54.318Z,1.30
2019-06-08T19:27:58.073Z,1.23
2019-06-08T19:33:01.830Z,0.93
2019-06-08T19:38:07.388Z,1.17
2019-06-08T19:43:10.896Z,1.00
2019-06-08T19:48:14.380Z,1.20
2019-06-08T19:53:18.420Z,1.37
2019-06-08T19:58:21.783Z,0.60
2019-06-08T20:03:27.506Z,1.33
2019-06-08T20:08:31.259Z,1.10
2019-06-08T20:13:35.343Z,1.80
2019-06-08T20:18:40.211Z,1.53
2019-06-08T20:23:43.638Z,1.23
2019-06-08T20:28:50.830Z,1.67
2019-06-08T20:33:52.265Z,1.65
2019-06-08T20:38:58.406Z,1.13
2019-06-08T20:44:00.957Z,1.43
2019-06-08T20:49:04.322Z,1.17
2019-06-08T20:54:08.096Z,1.37
2019-06-08T20:59:26.375Z,1.10
2019-06-08T21:04:18.218Z,1.40
2019-06-08T21:09:21.760Z,1.33
2019-06-08T21:14:27.304Z,1.70
2019-06-08T21:19:31.707Z,2.07
2019-06-08T21:24:37.126Z,1.30
2019-06-08T21:29:49.430Z,1.30
2019-06-08T21:34:49.290Z,1.67
2019-06-08T21:39:55.292Z,1.87
2019-06-08T21:44:59.943Z,1.57
2019-06-08T21:50:01.696Z,1.90
2019-06-08T21:55:07.352Z,1.97
2019-06-08T22:00:34.799Z,1.93
2019-06-08T22:05:16.235Z,1.40
2019-06-08T22:10:19.642Z,1.37
2019-06-08T22:15:23.286Z,1.87
2019-06-08T22:20:27.437Z,2.20
2019-06-08T22:25:33.249Z,2.10
2019-06-08T22:30:42.849Z,2.07
2019-06-08T22:35:41.773Z,1.50
2019-06-08T22:40:45.169Z,1.40
2019-06-08T22:45:48.551Z,1.30
2019-06-08T22:50:53.329Z,1.57
2019-06-08T22:55:59.380Z,1.70
2019-06-08T23:01:06.239Z,1.90
2019-06-08T23:06:08.856Z,2.03
2019-06-08T23:11:12.295Z,2.10
2019-06-08T23:16:18.027Z,1.80
2019-06-08T23:21:20.855Z,1.60
2019-06-08T23:26:24.172Z,1.77
2019-06-08T23:31:29.050Z,1.57
2019-06-08T23:36:48.341Z,1.70
2019-06-08T23:41:37.802Z,1.87
2019-06-08T23:46:41.305Z,1.80
2019-06-08T23:51:44.649Z,2.20
2019-06-08T23:56:47.975Z,1.73
